sensor_id;sensor_type;location;lat;lon;timestamp;P1;durP1;ratioP1;P2;durP2;ratioP2
15104;SDS011;7653;48.994;9.212;2023-02-22T00:00:41;8.73;;;5.87;;
15104;SDS011;7653;48.994;9.212;2023-02-22T00:05:44;8.40;;;6.00;;
15104;SDS011;7653;48.994;9.212;2023-02-22T00:08:14;19.47;;;9.03;;
15104;SDS011;7653;48.994;9.212;2023-02-22T00:10:41;17.90;;;9.10;;
15104;SDS011;7653;48.994;9.212;2023-02-22T00:13:08;13.50;;;7.67;;
15104;SDS011;7653;48.994;9.212;2023-02-22T00:15:35;21.00;;;9.93;;
15104;SDS011;7653;48.994;9.212;2023-02-22T00:18:02;16.70;;;8.57;;
15104;SDS011;7653;48.994;9.212;2023-02-22T00:20:29;11.60;;;6.67;;
15104;SDS011;7653;48.994;9.212;2023-02-22T00:22:54;9.13;;;6.23;;
15104;SDS011;7653;48.994;9.212;2023-02-22T00:25:21;14.47;;;7.60;;
15104;SDS011;7653;48.994;9.212;2023-02-22T00:27:49;24.70;;;11.73;;
15104;SDS011;7653;48.994;9.212;2023-02-22T00:30:21;20.20;;;10.77;;
15104;SDS011;7653;48.994;9.212;2023-02-22T00:32:50;17.63;;;8.67;;
15104;SDS011;7653;48.994;9.212;2023-02-22T00:35:19;16.87;;;8.83;;
15104;SDS011;7653;48.994;9.212;2023-02-22T00:37:49;17.30;;;7.90;;
15104;SDS011;7653;48.994;9.212;2023-02-22T00:40:18;11.27;;;7.07;;
15104;SDS011;7653;48.994;9.212;2023-02-22T00:42:46;10.67;;;6.27;;
15104;SDS011;7653;48.994;9.212;2023-02-22T00:45:12;11.63;;;6.40;;
15104;SDS011;7653;48.994;9.212;2023-02-22T00:47:41;14.07;;;7.97;;
15104;SDS011;7653;48.994;9.212;2023-02-22T00:50:07;16.27;;;9.23;;
15104;SDS011;7653;48.994;9.212;2023-02-22T00:52:34;17.87;;;10.10;;
15104;SDS011;7653;48.994;9.212;2023-02-22T00:55:00;21.57;;;10.23;;
15104;SDS011;7653;48.994;9.212;2023-02-22T00:57:26;12.13;;;7.30;;
15104;SDS011;7653;48.994;9.212;2023-02-22T00:59:52;13.33;;;7.47;;
15104;SDS011;7653;48.994;9.212;2023-02-22T01:02:18;12.70;;;6.97;;
15104;SDS011;7653;48.994;9.212;2023-02-22T01:04:44;14.60;;;7.83;;
15104;SDS011;7653;48.994;9.212;2023-02-22T01:07:09;11.43;;;7.03;;
15104;SDS011;7653;48.994;9.212;2023-02-22T01:09:35;15.13;;;8.23;;
15104;SDS011;7653;48.994;9.212;2023-02-22T01:12:03;19.30;;;9.77;;
15104;SDS011;7653;48.994;9.212;2023-02-22T01:14:29;12.33;;;7.90;;
15104;SDS011;7653;48.994;9.212;2023-02-22T01:16:55;17.07;;;8.63;;
15104;SDS011;7653;48.994;9.212;2023-02-22T01:19:21;12.53;;;6.00;;
15104;SDS011;7653;48.994;9.212;2023-02-22T01:21:47;9.67;;;6.30;;
15104;SDS011;7653;48.994;9.212;2023-02-22T01:24:14;15.63;;;8.10;;
15104;SDS011;7653;48.994;9.212;2023-02-22T01:26:41;13.87;;;8.37;;
15104;SDS011;7653;48.994;9.212;2023-02-22T01:29:12;13.33;;;7.37;;
15104;SDS011;7653;48.994;9.212;2023-02-22T01:31:39;11.53;;;6.90;;
15104;SDS011;7653;48.994;9.212;2023-02-22T01:34:08;15.23;;;7.90;;
15104;SDS011;7653;48.994;9.212;2023-02-22T01:36:37;11.73;;;6.07;;
15104;SDS011;7653;48.994;9.212;2023-02-22T01:39:04;11.33;;;6.30;;
15104;SDS011;7653;48.994;9.212;2023-02-22T01:41:30;10.60;;;6.87;;
15104;SDS011;7653;48.994;9.212;2023-02-22T01:43:56;9.33;;;5.53;;
15104;SDS011;7653;48.994;9.212;2023-02-22T01:46:23;9.77;;;5.63;;
15104;SDS011;7653;48.994;9.212;2023-02-22T01:48:55;9.60;;;6.13;;
15104;SDS011;7653;48.994;9.212;2023-02-22T01:51:27;8.67;;;5.27;;
15104;SDS011;7653;48.994;9.212;2023-02-22T01:56:40;7.63;;;5.03;;
15104;SDS011;7653;48.994;9.212;2023-02-22T01:59:14;10.57;;;5.73;;
15104;SDS011;7653;48.994;9.212;2023-02-22T02:01:41;8.63;;;5.27;;
15104;SDS011;7653;48.994;9.212;2023-02-22T02:04:13;7.73;;;5.70;;
15104;SDS011;7653;48.994;9.212;2023-02-22T02:06:43;8.27;;;5.17;;
15104;SDS011;7653;48.994;9.212;2023-02-22T02:11:54;14.07;;;7.30;;
15104;SDS011;7653;48.994;9.212;2023-02-22T02:14:21;12.67;;;7.30;;
15104;SDS011;7653;48.994;9.212;2023-02-22T02:16:48;11.47;;;6.57;;
15104;SDS011;7653;48.994;9.212;2023-02-22T02:19:25;17.50;;;8.17;;
15104;SDS011;7653;48.994;9.212;2023-02-22T02:24:50;7.63;;;5.63;;
15104;SDS011;7653;48.994;9.212;2023-02-22T02:36:51;11.53;;;6.07;;
15104;SDS011;7653;48.994;9.212;2023-02-22T02:39:24;14.97;;;7.93;;
15104;SDS011;7653;48.994;9.212;2023-02-22T02:41:54;10.00;;;6.60;;
15104;SDS011;7653;48.994;9.212;2023-02-22T02:47:17;9.67;;;6.03;;
15104;SDS011;7653;48.994;9.212;2023-02-22T02:50:06;8.47;;;5.53;;
15104;SDS011;7653;48.994;9.212;2023-02-22T02:52:33;11.53;;;6.33;;
15104;SDS011;7653;48.994;9.212;2023-02-22T02:55:01;10.50;;;6.60;;
15104;SDS011;7653;48.994;9.212;2023-02-22T02:57:28;13.00;;;6.20;;
15104;SDS011;7653;48.994;9.212;2023-02-22T02:59:54;7.50;;;5.40;;
15104;SDS011;7653;48.994;9.212;2023-02-22T03:29:27;8.30;;;5.10;;
15104;SDS011;7653;48.994;9.212;2023-02-22T03:31:59;9.73;;;5.77;;
15104;SDS011;7653;48.994;9.212;2023-02-22T03:34:28;6.87;;;5.30;;
15104;SDS011;7653;48.994;9.212;2023-02-22T03:37:01;8.20;;;5.90;;
15104;SDS011;7653;48.994;9.212;2023-02-22T03:39:31;8.73;;;6.10;;
15104;SDS011;7653;48.994;9.212;2023-02-22T03:42:02;9.17;;;5.80;;
15104;SDS011;7653;48.994;9.212;2023-02-22T03:44:31;8.80;;;5.40;;
15104;SDS011;7653;48.994;9.212;2023-02-22T03:47:03;7.77;;;5.43;;
15104;SDS011;7653;48.994;9.212;2023-02-22T03:52:08;8.17;;;5.30;;
15104;SDS011;7653;48.994;9.212;2023-02-22T03:54:34;10.07;;;5.30;;
15104;SDS011;7653;48.994;9.212;2023-02-22T03:57:03;6.50;;;4.97;;
15104;SDS011;7653;48.994;9.212;2023-02-22T03:59:34;11.47;;;6.03;;
15104;SDS011;7653;48.994;9.212;2023-02-22T04:02:00;6.63;;;5.60;;
15104;SDS011;7653;48.994;9.212;2023-02-22T04:04:26;9.47;;;5.77;;
15104;SDS011;7653;48.994;9.212;2023-02-22T04:06:52;9.13;;;5.53;;
15104;SDS011;7653;48.994;9.212;2023-02-22T04:09:18;9.83;;;6.07;;
15104;SDS011;7653;48.994;9.212;2023-02-22T04:11:45;10.07;;;6.67;;
15104;SDS011;7653;48.994;9.212;2023-02-22T04:14:11;8.60;;;5.97;;
15104;SDS011;7653;48.994;9.212;2023-02-22T04:16:37;11.43;;;6.13;;
15104;SDS011;7653;48.994;9.212;2023-02-22T04:19:03;8.53;;;5.60;;
15104;SDS011;7653;48.994;9.212;2023-02-22T04:21:30;7.73;;;5.60;;
15104;SDS011;7653;48.994;9.212;2023-02-22T04:23:56;9.13;;;5.73;;
15104;SDS011;7653;48.994;9.212;2023-02-22T04:26:22;7.23;;;5.20;;
15104;SDS011;7653;48.994;9.212;2023-02-22T04:28:48;7.60;;;5.73;;
15104;SDS011;7653;48.994;9.212;2023-02-22T04:31:14;6.63;;;5.60;;
15104;SDS011;7653;48.994;9.212;2023-02-22T04:33:40;8.17;;;5.80;;
15104;SDS011;7653;48.994;9.212;2023-02-22T04:36:06;8.20;;;6.03;;
15104;SDS011;7653;48.994;9.212;2023-02-22T04:38:32;7.13;;;5.30;;
15104;SDS011;7653;48.994;9.212;2023-02-22T04:40:59;7.17;;;5.53;;
15104;SDS011;7653;48.994;9.212;2023-02-22T04:43:24;7.60;;;5.63;;
15104;SDS011;7653;48.994;9.212;2023-02-22T04:45:50;9.27;;;5.87;;
15104;SDS011;7653;48.994;9.212;2023-02-22T04:48:15;9.17;;;5.90;;
15104;SDS011;7653;48.994;9.212;2023-02-22T04:50:41;7.83;;;5.57;;
15104;SDS011;7653;48.994;9.212;2023-02-22T04:53:07;9.50;;;6.03;;
15104;SDS011;7653;48.994;9.212;2023-02-22T04:55:33;8.87;;;5.60;;
15104;SDS011;7653;48.994;9.212;2023-02-22T04:57:58;8.27;;;5.80;;
15104;SDS011;7653;48.994;9.212;2023-02-22T05:00:24;8.63;;;6.17;;
15104;SDS011;7653;48.994;9.212;2023-02-22T05:02:51;6.57;;;5.57;;
15104;SDS011;7653;48.994;9.212;2023-02-22T05:05:18;7.80;;;5.57;;
15104;SDS011;7653;48.994;9.212;2023-02-22T05:07:45;8.97;;;6.00;;
15104;SDS011;7653;48.994;9.212;2023-02-22T05:10:12;10.30;;;6.57;;
15104;SDS011;7653;48.994;9.212;2023-02-22T05:12:38;10.17;;;5.57;;
15104;SDS011;7653;48.994;9.212;2023-02-22T05:15:05;7.40;;;5.40;;
15104;SDS011;7653;48.994;9.212;2023-02-22T05:17:32;11.37;;;6.50;;
15104;SDS011;7653;48.994;9.212;2023-02-22T05:19:58;8.47;;;6.13;;
15104;SDS011;7653;48.994;9.212;2023-02-22T05:22:23;9.63;;;5.87;;
15104;SDS011;7653;48.994;9.212;2023-02-22T05:24:49;9.97;;;5.67;;
15104;SDS011;7653;48.994;9.212;2023-02-22T05:27:18;8.30;;;6.53;;
15104;SDS011;7653;48.994;9.212;2023-02-22T05:29:43;8.57;;;6.10;;
15104;SDS011;7653;48.994;9.212;2023-02-22T05:32:09;8.03;;;5.90;;
15104;SDS011;7653;48.994;9.212;2023-02-22T05:34:36;6.83;;;5.70;;
15104;SDS011;7653;48.994;9.212;2023-02-22T05:37:02;6.83;;;5.37;;
15104;SDS011;7653;48.994;9.212;2023-02-22T05:39:29;8.27;;;6.50;;
15104;SDS011;7653;48.994;9.212;2023-02-22T05:41:55;7.10;;;5.70;;
15104;SDS011;7653;48.994;9.212;2023-02-22T05:44:21;9.73;;;6.57;;
15104;SDS011;7653;48.994;9.212;2023-02-22T05:46:47;10.47;;;5.80;;
15104;SDS011;7653;48.994;9.212;2023-02-22T05:49:12;8.97;;;6.60;;
15104;SDS011;7653;48.994;9.212;2023-02-22T05:51:38;9.53;;;6.13;;
15104;SDS011;7653;48.994;9.212;2023-02-22T05:54:04;9.20;;;6.40;;
15104;SDS011;7653;48.994;9.212;2023-02-22T05:56:29;10.70;;;7.17;;
15104;SDS011;7653;48.994;9.212;2023-02-22T05:58:55;13.20;;;6.50;;
15104;SDS011;7653;48.994;9.212;2023-02-22T06:01:22;7.90;;;6.17;;
15104;SDS011;7653;48.994;9.212;2023-02-22T06:03:49;8.43;;;5.90;;
15104;SDS011;7653;48.994;9.212;2023-02-22T06:06:15;8.50;;;6.20;;
15104;SDS011;7653;48.994;9.212;2023-02-22T06:08:44;9.13;;;6.17;;
15104;SDS011;7653;48.994;9.212;2023-02-22T06:11:09;8.50;;;6.30;;
15104;SDS011;7653;48.994;9.212;2023-02-22T06:13:35;9.77;;;6.40;;
15104;SDS011;7653;48.994;9.212;2023-02-22T06:16:01;8.27;;;5.70;;
15104;SDS011;7653;48.994;9.212;2023-02-22T06:18:28;8.27;;;6.23;;
15104;SDS011;7653;48.994;9.212;2023-02-22T06:20:55;10.17;;;6.30;;
15104;SDS011;7653;48.994;9.212;2023-02-22T06:23:24;9.53;;;6.20;;
15104;SDS011;7653;48.994;9.212;2023-02-22T06:25:50;8.37;;;6.27;;
15104;SDS011;7653;48.994;9.212;2023-02-22T06:28:16;10.43;;;6.43;;
15104;SDS011;7653;48.994;9.212;2023-02-22T06:30:42;11.33;;;6.57;;
15104;SDS011;7653;48.994;9.212;2023-02-22T06:33:08;8.13;;;6.13;;
15104;SDS011;7653;48.994;9.212;2023-02-22T06:35:34;7.63;;;6.07;;
15104;SDS011;7653;48.994;9.212;2023-02-22T06:38:00;12.07;;;6.77;;
15104;SDS011;7653;48.994;9.212;2023-02-22T06:40:26;11.30;;;6.80;;
15104;SDS011;7653;48.994;9.212;2023-02-22T06:42:53;11.10;;;6.47;;
15104;SDS011;7653;48.994;9.212;2023-02-22T06:45:19;12.23;;;6.97;;
15104;SDS011;7653;48.994;9.212;2023-02-22T06:47:45;11.17;;;6.50;;
15104;SDS011;7653;48.994;9.212;2023-02-22T06:50:21;11.33;;;6.90;;
15104;SDS011;7653;48.994;9.212;2023-02-22T06:52:52;12.53;;;6.77;;
15104;SDS011;7653;48.994;9.212;2023-02-22T06:55:20;12.23;;;6.90;;
15104;SDS011;7653;48.994;9.212;2023-02-22T06:57:47;9.63;;;6.80;;
15104;SDS011;7653;48.994;9.212;2023-02-22T07:00:14;11.33;;;7.50;;
15104;SDS011;7653;48.994;9.212;2023-02-22T07:02:41;9.90;;;6.00;;
15104;SDS011;7653;48.994;9.212;2023-02-22T07:05:08;7.43;;;5.77;;
15104;SDS011;7653;48.994;9.212;2023-02-22T07:07:36;11.37;;;6.43;;
15104;SDS011;7653;48.994;9.212;2023-02-22T07:10:03;11.80;;;6.03;;
15104;SDS011;7653;48.994;9.212;2023-02-22T07:12:30;9.53;;;6.50;;
15104;SDS011;7653;48.994;9.212;2023-02-22T07:14:56;10.83;;;5.97;;
15104;SDS011;7653;48.994;9.212;2023-02-22T07:17:22;10.47;;;6.10;;
15104;SDS011;7653;48.994;9.212;2023-02-22T07:19:47;9.00;;;6.77;;
15104;SDS011;7653;48.994;9.212;2023-02-22T07:22:13;11.10;;;7.03;;
15104;SDS011;7653;48.994;9.212;2023-02-22T07:24:39;9.53;;;6.10;;
15104;SDS011;7653;48.994;9.212;2023-02-22T07:27:05;10.57;;;7.50;;
15104;SDS011;7653;48.994;9.212;2023-02-22T07:29:31;9.37;;;6.70;;
15104;SDS011;7653;48.994;9.212;2023-02-22T07:31:57;11.63;;;7.03;;
15104;SDS011;7653;48.994;9.212;2023-02-22T07:34:23;11.90;;;6.70;;
15104;SDS011;7653;48.994;9.212;2023-02-22T07:36:48;11.73;;;7.17;;
15104;SDS011;7653;48.994;9.212;2023-02-22T07:39:14;11.40;;;6.90;;
15104;SDS011;7653;48.994;9.212;2023-02-22T07:41:40;17.50;;;9.00;;
15104;SDS011;7653;48.994;9.212;2023-02-22T07:44:05;10.33;;;8.03;;
15104;SDS011;7653;48.994;9.212;2023-02-22T07:46:31;13.47;;;9.03;;
15104;SDS011;7653;48.994;9.212;2023-02-22T07:48:57;15.40;;;8.93;;
15104;SDS011;7653;48.994;9.212;2023-02-22T07:51:23;17.10;;;10.33;;
15104;SDS011;7653;48.994;9.212;2023-02-22T07:53:49;16.30;;;10.30;;
15104;SDS011;7653;48.994;9.212;2023-02-22T07:56:15;15.47;;;10.70;;
15104;SDS011;7653;48.994;9.212;2023-02-22T07:58:42;18.27;;;10.50;;
15104;SDS011;7653;48.994;9.212;2023-02-22T08:01:08;16.93;;;10.33;;
15104;SDS011;7653;48.994;9.212;2023-02-22T08:03:34;14.43;;;10.03;;
15104;SDS011;7653;48.994;9.212;2023-02-22T08:06:02;14.80;;;9.10;;
15104;SDS011;7653;48.994;9.212;2023-02-22T08:08:28;12.00;;;8.53;;
15104;SDS011;7653;48.994;9.212;2023-02-22T08:10:54;12.17;;;8.67;;
15104;SDS011;7653;48.994;9.212;2023-02-22T08:13:21;11.90;;;8.73;;
15104;SDS011;7653;48.994;9.212;2023-02-22T08:15:49;16.53;;;8.73;;
15104;SDS011;7653;48.994;9.212;2023-02-22T08:18:17;14.37;;;8.10;;
15104;SDS011;7653;48.994;9.212;2023-02-22T08:20:45;11.37;;;8.23;;
15104;SDS011;7653;48.994;9.212;2023-02-22T08:23:12;11.70;;;7.73;;
15104;SDS011;7653;48.994;9.212;2023-02-22T08:25:39;12.00;;;8.00;;
15104;SDS011;7653;48.994;9.212;2023-02-22T08:28:09;11.57;;;8.90;;
15104;SDS011;7653;48.994;9.212;2023-02-22T08:30:36;11.33;;;8.43;;
15104;SDS011;7653;48.994;9.212;2023-02-22T08:33:03;12.60;;;8.63;;
15104;SDS011;7653;48.994;9.212;2023-02-22T08:35:30;10.93;;;7.83;;
15104;SDS011;7653;48.994;9.212;2023-02-22T08:38:01;13.03;;;7.97;;
15104;SDS011;7653;48.994;9.212;2023-02-22T08:40:29;13.10;;;8.20;;
15104;SDS011;7653;48.994;9.212;2023-02-22T08:42:56;12.63;;;7.60;;
15104;SDS011;7653;48.994;9.212;2023-02-22T08:45:22;11.60;;;7.77;;
15104;SDS011;7653;48.994;9.212;2023-02-22T08:47:48;12.60;;;7.97;;
15104;SDS011;7653;48.994;9.212;2023-02-22T08:50:21;9.43;;;7.67;;
15104;SDS011;7653;48.994;9.212;2023-02-22T08:52:53;10.67;;;7.83;;
15104;SDS011;7653;48.994;9.212;2023-02-22T08:55:20;11.97;;;7.57;;
15104;SDS011;7653;48.994;9.212;2023-02-22T08:57:47;9.43;;;7.17;;
15104;SDS011;7653;48.994;9.212;2023-02-22T09:00:14;11.93;;;7.53;;
15104;SDS011;7653;48.994;9.212;2023-02-22T09:02:41;11.80;;;7.40;;
15104;SDS011;7653;48.994;9.212;2023-02-22T09:05:08;10.03;;;7.30;;
15104;SDS011;7653;48.994;9.212;2023-02-22T09:07:33;11.10;;;7.97;;
15104;SDS011;7653;48.994;9.212;2023-02-22T09:09:59;10.33;;;6.70;;
15104;SDS011;7653;48.994;9.212;2023-02-22T09:12:25;10.90;;;7.63;;
15104;SDS011;7653;48.994;9.212;2023-02-22T09:14:50;11.13;;;7.53;;
15104;SDS011;7653;48.994;9.212;2023-02-22T09:17:16;10.10;;;7.47;;
15104;SDS011;7653;48.994;9.212;2023-02-22T09:19:42;13.27;;;7.63;;
15104;SDS011;7653;48.994;9.212;2023-02-22T09:22:09;11.20;;;7.37;;
15104;SDS011;7653;48.994;9.212;2023-02-22T09:24:34;12.47;;;7.87;;
15104;SDS011;7653;48.994;9.212;2023-02-22T09:27:00;12.03;;;7.50;;
15104;SDS011;7653;48.994;9.212;2023-02-22T09:29:28;14.83;;;8.50;;
15104;SDS011;7653;48.994;9.212;2023-02-22T09:31:54;11.97;;;8.23;;
15104;SDS011;7653;48.994;9.212;2023-02-22T09:34:21;18.17;;;7.83;;
15104;SDS011;7653;48.994;9.212;2023-02-22T09:36:53;16.77;;;7.80;;
15104;SDS011;7653;48.994;9.212;2023-02-22T09:39:19;22.97;;;8.87;;
15104;SDS011;7653;48.994;9.212;2023-02-22T09:47:06;20.27;;;8.57;;
15104;SDS011;7653;48.994;9.212;2023-02-22T09:49:59;21.47;;;8.37;;
15104;SDS011;7653;48.994;9.212;2023-02-22T09:55:01;15.97;;;8.00;;
15104;SDS011;7653;48.994;9.212;2023-02-22T09:57:35;15.93;;;8.20;;
15104;SDS011;7653;48.994;9.212;2023-02-22T10:02:50;14.17;;;8.10;;
15104;SDS011;7653;48.994;9.212;2023-02-22T10:05:26;12.73;;;7.10;;
15104;SDS011;7653;48.994;9.212;2023-02-22T10:08:02;13.97;;;7.37;;
15104;SDS011;7653;48.994;9.212;2023-02-22T10:10:34;9.70;;;6.47;;
15104;SDS011;7653;48.994;9.212;2023-02-22T10:27:21;12.90;;;7.63;;
15104;SDS011;7653;48.994;9.212;2023-02-22T10:32:42;16.10;;;7.77;;
15104;SDS011;7653;48.994;9.212;2023-02-22T10:35:19;13.87;;;7.90;;
15104;SDS011;7653;48.994;9.212;2023-02-22T10:37:53;13.23;;;7.50;;
15104;SDS011;7653;48.994;9.212;2023-02-22T10:40:23;9.83;;;7.63;;
15104;SDS011;7653;48.994;9.212;2023-02-22T10:42:57;12.73;;;7.20;;
15104;SDS011;7653;48.994;9.212;2023-02-22T10:45:26;16.67;;;8.20;;
15104;SDS011;7653;48.994;9.212;2023-02-22T10:47:56;15.20;;;7.87;;
15104;SDS011;7653;48.994;9.212;2023-02-22T10:50:24;11.73;;;7.67;;
15104;SDS011;7653;48.994;9.212;2023-02-22T10:52:53;11.77;;;7.80;;
15104;SDS011;7653;48.994;9.212;2023-02-22T10:55:19;12.97;;;7.90;;
15104;SDS011;7653;48.994;9.212;2023-02-22T10:57:46;15.40;;;7.77;;
15104;SDS011;7653;48.994;9.212;2023-02-22T11:02:56;11.60;;;7.60;;
15104;SDS011;7653;48.994;9.212;2023-02-22T11:10:44;12.40;;;7.00;;
15104;SDS011;7653;48.994;9.212;2023-02-22T11:16:00;11.70;;;7.40;;
15104;SDS011;7653;48.994;9.212;2023-02-22T11:18:41;11.43;;;7.43;;
15104;SDS011;7653;48.994;9.212;2023-02-22T11:21:08;12.57;;;6.90;;
15104;SDS011;7653;48.994;9.212;2023-02-22T11:23:37;12.57;;;6.97;;
15104;SDS011;7653;48.994;9.212;2023-02-22T11:26:17;7.90;;;6.63;;
15104;SDS011;7653;48.994;9.212;2023-02-22T11:28:51;12.10;;;7.10;;
15104;SDS011;7653;48.994;9.212;2023-02-22T11:31:27;12.03;;;7.30;;
15104;SDS011;7653;48.994;9.212;2023-02-22T11:36:34;12.87;;;7.60;;
15104;SDS011;7653;48.994;9.212;2023-02-22T11:39:05;11.83;;;8.30;;
15104;SDS011;7653;48.994;9.212;2023-02-22T11:41:45;13.60;;;8.07;;
15104;SDS011;7653;48.994;9.212;2023-02-22T11:44:30;11.30;;;6.70;;
15104;SDS011;7653;48.994;9.212;2023-02-22T11:46:59;13.60;;;8.47;;
15104;SDS011;7653;48.994;9.212;2023-02-22T11:49:34;10.87;;;7.83;;
15104;SDS011;7653;48.994;9.212;2023-02-22T11:54:52;13.40;;;8.47;;
15104;SDS011;7653;48.994;9.212;2023-02-22T12:12:39;11.30;;;8.73;;
15104;SDS011;7653;48.994;9.212;2023-02-22T12:20:46;11.27;;;8.67;;
15104;SDS011;7653;48.994;9.212;2023-02-22T12:26:04;10.33;;;7.00;;
15104;SDS011;7653;48.994;9.212;2023-02-22T12:28:37;12.47;;;7.43;;
15104;SDS011;7653;48.994;9.212;2023-02-22T12:36:17;13.30;;;9.33;;
15104;SDS011;7653;48.994;9.212;2023-02-22T12:38:47;16.23;;;9.83;;
15104;SDS011;7653;48.994;9.212;2023-02-22T12:41:24;13.53;;;9.27;;
15104;SDS011;7653;48.994;9.212;2023-02-22T12:44:50;10.27;;;7.20;;
15104;SDS011;7653;48.994;9.212;2023-02-22T12:47:01;13.53;;;9.50;;
15104;SDS011;7653;48.994;9.212;2023-02-22T12:52:09;13.37;;;9.43;;
15104;SDS011;7653;48.994;9.212;2023-02-22T12:55:00;13.63;;;10.27;;
15104;SDS011;7653;48.994;9.212;2023-02-22T12:57:46;13.87;;;8.63;;
15104;SDS011;7653;48.994;9.212;2023-02-22T13:02:57;14.27;;;9.27;;
15104;SDS011;7653;48.994;9.212;2023-02-22T13:05:33;13.13;;;10.50;;
15104;SDS011;7653;48.994;9.212;2023-02-22T13:21:20;12.27;;;7.73;;
15104;SDS011;7653;48.994;9.212;2023-02-22T13:26:50;12.80;;;9.87;;
15104;SDS011;7653;48.994;9.212;2023-02-22T13:46:30;13.00;;;9.57;;
15104;SDS011;7653;48.994;9.212;2023-02-22T13:54:33;13.80;;;9.73;;
15104;SDS011;7653;48.994;9.212;2023-02-22T14:08:51;12.07;;;8.97;;
15104;SDS011;7653;48.994;9.212;2023-02-22T14:13:20;12.27;;;8.93;;
15104;SDS011;7653;48.994;9.212;2023-02-22T14:18:35;13.37;;;9.10;;
15104;SDS011;7653;48.994;9.212;2023-02-22T14:21:09;11.30;;;9.00;;
15104;SDS011;7653;48.994;9.212;2023-02-22T14:23:40;14.07;;;9.27;;
15104;SDS011;7653;48.994;9.212;2023-02-22T14:26:10;13.90;;;9.57;;
15104;SDS011;7653;48.994;9.212;2023-02-22T14:41:41;11.53;;;9.00;;
15104;SDS011;7653;48.994;9.212;2023-02-22T14:44:12;15.00;;;9.13;;
15104;SDS011;7653;48.994;9.212;2023-02-22T14:46:45;13.13;;;9.10;;
15104;SDS011;7653;48.994;9.212;2023-02-22T14:49:14;12.77;;;8.77;;
15104;SDS011;7653;48.994;9.212;2023-02-22T14:51:48;13.40;;;9.23;;
15104;SDS011;7653;48.994;9.212;2023-02-22T14:54:40;12.87;;;9.10;;
15104;SDS011;7653;48.994;9.212;2023-02-22T15:00:22;12.33;;;8.83;;
15104;SDS011;7653;48.994;9.212;2023-02-22T15:02:57;12.27;;;8.70;;
15104;SDS011;7653;48.994;9.212;2023-02-22T15:05:24;10.73;;;8.57;;
15104;SDS011;7653;48.994;9.212;2023-02-22T15:08:04;10.93;;;9.00;;
15104;SDS011;7653;48.994;9.212;2023-02-22T15:13:04;12.77;;;8.27;;
15104;SDS011;7653;48.994;9.212;2023-02-22T15:15:38;12.10;;;8.63;;
15104;SDS011;7653;48.994;9.212;2023-02-22T15:18:43;12.90;;;9.37;;
15104;SDS011;7653;48.994;9.212;2023-02-22T15:21:11;11.83;;;9.07;;
15104;SDS011;7653;48.994;9.212;2023-02-22T15:26:24;11.17;;;8.53;;
15104;SDS011;7653;48.994;9.212;2023-02-22T15:28:59;12.17;;;8.60;;
15104;SDS011;7653;48.994;9.212;2023-02-22T15:36:51;11.27;;;8.13;;
15104;SDS011;7653;48.994;9.212;2023-02-22T15:42:09;17.73;;;10.07;;
15104;SDS011;7653;48.994;9.212;2023-02-22T15:44:43;11.10;;;8.20;;
15104;SDS011;7653;48.994;9.212;2023-02-22T15:47:11;11.23;;;7.97;;
15104;SDS011;7653;48.994;9.212;2023-02-22T15:49:42;12.50;;;9.33;;
15104;SDS011;7653;48.994;9.212;2023-02-22T15:52:18;12.87;;;9.27;;
15104;SDS011;7653;48.994;9.212;2023-02-22T15:54:48;15.20;;;9.03;;
15104;SDS011;7653;48.994;9.212;2023-02-22T15:57:16;14.03;;;10.57;;
15104;SDS011;7653;48.994;9.212;2023-02-22T15:59:51;16.57;;;10.43;;
15104;SDS011;7653;48.994;9.212;2023-02-22T16:02:28;15.00;;;10.33;;
15104;SDS011;7653;48.994;9.212;2023-02-22T16:05:15;15.43;;;9.63;;
15104;SDS011;7653;48.994;9.212;2023-02-22T16:07:48;14.13;;;9.10;;
15104;SDS011;7653;48.994;9.212;2023-02-22T16:10:36;14.83;;;10.40;;
15104;SDS011;7653;48.994;9.212;2023-02-22T16:13:02;17.97;;;11.17;;
15104;SDS011;7653;48.994;9.212;2023-02-22T16:16:01;18.00;;;11.90;;
15104;SDS011;7653;48.994;9.212;2023-02-22T16:23:44;16.53;;;13.33;;
15104;SDS011;7653;48.994;9.212;2023-02-22T16:28:56;15.57;;;8.73;;
15104;SDS011;7653;48.994;9.212;2023-02-22T16:31:34;12.67;;;8.13;;
15104;SDS011;7653;48.994;9.212;2023-02-22T16:34:02;12.97;;;8.33;;
15104;SDS011;7653;48.994;9.212;2023-02-22T16:39:07;11.33;;;8.33;;
15104;SDS011;7653;48.994;9.212;2023-02-22T16:41:43;13.67;;;8.40;;
15104;SDS011;7653;48.994;9.212;2023-02-22T16:44:10;12.93;;;8.50;;
15104;SDS011;7653;48.994;9.212;2023-02-22T16:46:37;12.57;;;8.67;;
15104;SDS011;7653;48.994;9.212;2023-02-22T16:49:03;15.80;;;9.57;;
15104;SDS011;7653;48.994;9.212;2023-02-22T16:51:32;11.90;;;9.73;;
15104;SDS011;7653;48.994;9.212;2023-02-22T16:54:04;14.60;;;10.03;;
15104;SDS011;7653;48.994;9.212;2023-02-22T16:56:34;11.87;;;9.20;;
15104;SDS011;7653;48.994;9.212;2023-02-22T16:59:01;16.13;;;9.63;;
15104;SDS011;7653;48.994;9.212;2023-02-22T17:01:31;14.10;;;8.70;;
15104;SDS011;7653;48.994;9.212;2023-02-22T17:03:57;13.20;;;9.97;;
15104;SDS011;7653;48.994;9.212;2023-02-22T17:06:23;15.53;;;11.17;;
15104;SDS011;7653;48.994;9.212;2023-02-22T17:08:49;14.77;;;10.07;;
15104;SDS011;7653;48.994;9.212;2023-02-22T17:11:16;27.70;;;15.20;;
15104;SDS011;7653;48.994;9.212;2023-02-22T17:13:42;20.10;;;12.33;;
15104;SDS011;7653;48.994;9.212;2023-02-22T17:16:13;20.47;;;12.93;;
15104;SDS011;7653;48.994;9.212;2023-02-22T17:18:39;18.73;;;12.10;;
15104;SDS011;7653;48.994;9.212;2023-02-22T17:21:04;18.80;;;12.27;;
15104;SDS011;7653;48.994;9.212;2023-02-22T17:23:30;18.83;;;12.17;;
15104;SDS011;7653;48.994;9.212;2023-02-22T17:25:57;18.17;;;12.13;;
15104;SDS011;7653;48.994;9.212;2023-02-22T17:28:28;17.40;;;11.80;;
15104;SDS011;7653;48.994;9.212;2023-02-22T17:30:55;15.20;;;10.83;;
15104;SDS011;7653;48.994;9.212;2023-02-22T17:33:29;15.13;;;10.03;;
15104;SDS011;7653;48.994;9.212;2023-02-22T17:36:10;15.03;;;9.93;;
15104;SDS011;7653;48.994;9.212;2023-02-22T17:38:37;18.00;;;10.73;;
15104;SDS011;7653;48.994;9.212;2023-02-22T17:41:05;18.07;;;11.97;;
15104;SDS011;7653;48.994;9.212;2023-02-22T17:43:31;39.77;;;21.47;;
15104;SDS011;7653;48.994;9.212;2023-02-22T17:45:57;25.23;;;14.67;;
15104;SDS011;7653;48.994;9.212;2023-02-22T17:48:23;24.03;;;13.07;;
15104;SDS011;7653;48.994;9.212;2023-02-22T17:50:49;19.87;;;12.73;;
15104;SDS011;7653;48.994;9.212;2023-02-22T17:53:15;23.73;;;13.73;;
15104;SDS011;7653;48.994;9.212;2023-02-22T17:55:45;20.40;;;12.43;;
15104;SDS011;7653;48.994;9.212;2023-02-22T17:58:12;22.23;;;12.50;;
15104;SDS011;7653;48.994;9.212;2023-02-22T18:00:38;21.80;;;11.90;;
15104;SDS011;7653;48.994;9.212;2023-02-22T18:03:13;15.50;;;11.13;;
15104;SDS011;7653;48.994;9.212;2023-02-22T18:05:46;16.53;;;10.70;;
15104;SDS011;7653;48.994;9.212;2023-02-22T18:08:13;16.87;;;10.80;;
15104;SDS011;7653;48.994;9.212;2023-02-22T18:10:40;15.73;;;10.20;;
15104;SDS011;7653;48.994;9.212;2023-02-22T18:13:07;17.87;;;10.73;;
15104;SDS011;7653;48.994;9.212;2023-02-22T18:15:33;16.80;;;10.60;;
15104;SDS011;7653;48.994;9.212;2023-02-22T18:18:02;13.40;;;9.20;;
15104;SDS011;7653;48.994;9.212;2023-02-22T18:20:29;19.33;;;10.93;;
15104;SDS011;7653;48.994;9.212;2023-02-22T18:22:56;16.27;;;10.70;;
15104;SDS011;7653;48.994;9.212;2023-02-22T18:25:22;15.20;;;10.50;;
15104;SDS011;7653;48.994;9.212;2023-02-22T18:27:49;16.40;;;11.80;;
15104;SDS011;7653;48.994;9.212;2023-02-22T18:30:17;16.07;;;11.13;;
15104;SDS011;7653;48.994;9.212;2023-02-22T18:32:43;15.93;;;10.40;;
15104;SDS011;7653;48.994;9.212;2023-02-22T18:35:10;14.63;;;11.37;;
15104;SDS011;7653;48.994;9.212;2023-02-22T18:37:37;13.53;;;10.73;;
15104;SDS011;7653;48.994;9.212;2023-02-22T18:40:02;18.60;;;11.30;;
15104;SDS011;7653;48.994;9.212;2023-02-22T18:42:34;18.37;;;11.73;;
15104;SDS011;7653;48.994;9.212;2023-02-22T18:45:00;19.97;;;11.27;;